Time;durP1;ratioP1;P1;durP2;ratioP2;P2;SDS_P1;SDS_P2;PMS_P1;PMS_P2;Temp;Humidity;BMP_temperature;BMP_pressure;BME280_temperature;BME280_humidity;BME280_pressure;Samples;Min_cycle;Max_cycle;Signal;HPM_P1;HPM_P2
2022/01/19 00:02:01;;;;;;;7.97;3.73;;;-2.60;99.90;;;;;;4995783;28;20226;-59
2022/01/19 00:04:27;;;;;;;7.03;3.47;;;-2.60;99.90;;;;;;4995572;28;20534;-59
2022/01/19 00:06:53;;;;;;;14.40;4.27;;;-2.70;99.90;;;;;;4995784;28;20262;-59
2022/01/19 00:09:19;;;;;;;12.93;5.43;;;-2.60;99.90;;;;;;4995837;28;20218;-60
2022/01/19 00:11:44;;;;;;;12.13;4.60;;;-2.60;99.90;;;;;;4946404;28;20198;-66
2022/01/19 00:14:10;;;;;;;13.00;5.13;;;-2.60;99.90;;;;;;5004892;28;20232;-60
2022/01/19 00:16:36;;;;;;;19.77;6.93;;;-2.70;99.90;;;;;;5015289;28;20190;-60
2022/01/19 00:19:01;;;;;;;9.70;5.37;;;-2.70;99.90;;;;;;5015027;28;20226;-58
2022/01/19 00:21:27;;;;;;;16.87;5.77;;;-2.80;99.90;;;;;;5015414;28;20185;-58
2022/01/19 00:23:53;;;;;;;16.97;5.57;;;-2.80;99.90;;;;;;5015244;28;20187;-59
2022/01/19 00:26:18;;;;;;;15.73;6.33;;;-2.80;99.90;;;;;;5015255;28;20284;-59
2022/01/19 00:28:44;;;;;;;18.67;5.97;;;-2.80;99.90;;;;;;5015700;28;20191;-63
2022/01/19 00:31:10;;;;;;;15.20;5.67;;;-2.80;99.90;;;;;;5015101;28;20178;-58
2022/01/19 00:33:36;;;;;;;14.93;5.27;;;-2.80;99.90;;;;;;5015358;28;20661;-58
2022/01/19 00:36:02;;;;;;;10.33;4.20;;;-2.80;99.90;;;;;;5014879;28;20236;-58
2022/01/19 00:38:28;;;;;;;11.90;4.33;;;-2.80;99.90;;;;;;5015277;28;20222;-61
2022/01/19 00:40:55;;;;;;;11.10;4.50;;;-2.80;99.90;;;;;;5015066;28;20603;-59
2022/01/19 00:43:21;;;;;;;11.90;4.77;;;-2.80;99.90;;;;;;5014940;28;20186;-58
2022/01/19 00:45:46;;;;;;;10.20;4.50;;;-2.80;99.90;;;;;;4997300;28;20535;-60
2022/01/19 00:48:12;;;;;;;8.67;4.70;;;-2.80;99.90;;;;;;5014892;28;20554;-56
2022/01/19 00:50:38;;;;;;;13.03;4.43;;;-2.80;99.90;;;;;;5014808;28;20751;-58
2022/01/19 00:53:04;;;;;;;11.43;4.20;;;-2.80;99.90;;;;;;5014478;28;20620;-59
2022/01/19 00:55:30;;;;;;;11.40;4.20;;;-2.70;99.90;;;;;;5014655;28;20639;-59
2022/01/19 00:57:56;;;;;;;6.47;2.57;;;-2.70;99.90;;;;;;5014350;28;20260;-60
2022/01/19 01:00:25;;;;;;;12.40;5.10;;;-2.70;99.90;;;;;;5014506;28;20214;-58
2022/01/19 01:02:51;;;;;;;9.93;4.10;;;-2.70;99.90;;;;;;5014039;28;20194;-59
2022/01/19 01:05:17;;;;;;;12.07;4.80;;;-2.80;99.90;;;;;;4996925;28;20183;-60
2022/01/19 01:07:43;;;;;;;11.40;5.07;;;-2.80;99.90;;;;;;5014409;28;20228;-59
2022/01/19 01:10:12;;;;;;;15.20;6.63;;;-2.80;99.90;;;;;;5014000;28;20186;-60
2022/01/19 01:13:16;;;;;;;14.33;5.10;;;-2.80;99.90;;;;;;5014324;28;20213;-60
2022/01/19 01:15:49;;;;;;;7.33;3.20;;;-2.80;99.90;;;;;;4985812;28;20289;-60
2022/01/19 01:18:19;;;;;;;10.73;5.00;;;-2.80;99.90;;;;;;4994567;28;20230;-60
2022/01/19 01:20:47;;;;;;;15.90;5.13;;;-2.80;99.90;;;;;;4994440;28;20186;-60
2022/01/19 01:23:14;;;;;;;11.63;4.67;;;-2.80;99.90;;;;;;4994394;28;20221;-59
2022/01/19 01:25:39;;;;;;;8.87;4.17;;;-2.80;99.90;;;;;;4994432;28;20546;-59
2022/01/19 01:28:07;;;;;;;14.27;4.20;;;-2.70;99.90;;;;;;4994341;28;20190;-60
2022/01/19 01:30:34;;;;;;;10.87;4.40;;;-2.70;99.90;;;;;;4994485;28;20188;-60
2022/01/19 01:33:00;;;;;;;10.00;4.27;;;-2.70;99.90;;;;;;4994087;28;20191;-60
2022/01/19 01:35:26;;;;;;;12.93;4.83;;;-2.60;99.90;;;;;;4994539;28;20249;-60
2022/01/19 01:37:52;;;;;;;9.73;4.20;;;-2.60;99.90;;;;;;4994096;28;20226;-59
2022/01/19 01:40:19;;;;;;;12.67;4.90;;;-2.60;99.90;;;;;;4994301;28;20199;-59
2022/01/19 01:42:45;;;;;;;10.37;3.80;;;-2.60;99.90;;;;;;4994283;28;20239;-57
2022/01/19 01:45:13;;;;;;;14.63;5.10;;;-2.50;99.90;;;;;;4994114;28;20182;-59
2022/01/19 01:47:45;;;;;;;9.13;3.53;;;-2.50;99.90;;;;;;4994227;28;20179;-59
2022/01/19 01:55:24;;;;;;;11.67;3.97;;;-2.50;99.90;;;;;;4994307;28;20192;-60
2022/01/19 01:57:50;;;;;;;15.33;5.60;;;-2.50;99.90;;;;;;4993680;28;20218;-66
2022/01/19 02:00:20;;;;;;;11.93;4.73;;;-2.50;99.90;;;;;;4976198;28;20188;-60
2022/01/19 02:02:47;;;;;;;12.77;4.07;;;-2.60;99.90;;;;;;4993813;28;20213;-56
2022/01/19 02:05:14;;;;;;;10.70;4.70;;;-2.60;99.90;;;;;;4993214;28;20218;-58
2022/01/19 02:08:02;;;;;;;10.37;4.37;;;-2.60;99.90;;;;;;4993774;28;20278;-59
2022/01/19 02:10:44;;;;;;;14.43;4.93;;;-2.70;99.90;;;;;;4979412;28;20198;-59
2022/01/19 02:23:53;;;;;;;11.27;4.40;;;-3.10;99.90;;;;;;4992889;28;20197;-60
2022/01/19 02:26:30;;;;;;;12.90;4.67;;;-3.10;99.90;;;;;;4993487;28;20281;-60
2022/01/19 02:42:38;;;;;;;11.17;5.07;;;-3.40;99.90;;;;;;4965822;28;20942;-59
2022/01/19 02:49:57;;;;;;;9.70;5.00;;;-3.30;99.90;;;;;;4992779;28;20194;-58
2022/01/19 02:52:25;;;;;;;12.43;5.37;;;-3.30;99.90;;;;;;4994348;28;20193;-59
2022/01/19 02:54:51;;;;;;;14.70;5.07;;;-3.40;99.90;;;;;;5012566;28;20183;-59
2022/01/19 02:57:23;;;;;;;17.30;7.00;;;-3.40;99.90;;;;;;5011977;28;20222;-60
2022/01/19 03:10:32;;;;;;;16.30;6.80;;;-3.30;99.90;;;;;;5012467;28;20184;-59
2022/01/19 03:12:58;;;;;;;15.93;6.90;;;-3.30;99.90;;;;;;5011969;28;20256;-58
2022/01/19 03:15:24;;;;;;;21.17;7.57;;;-3.30;99.90;;;;;;4992804;28;20235;-59
2022/01/19 03:17:50;;;;;;;15.63;5.70;;;-3.30;99.90;;;;;;4992261;28;20222;-60
2022/01/19 03:20:16;;;;;;;15.93;7.70;;;-3.30;99.90;;;;;;4991967;28;20193;-60
2022/01/19 03:25:40;;;;;;;17.17;7.20;;;-3.30;99.90;;;;;;4958964;28;20219;-60
2022/01/19 03:28:06;;;;;;;24.00;8.30;;;-3.30;99.90;;;;;;4991890;28;20185;-59
2022/01/19 03:30:33;;;;;;;18.80;7.13;;;-3.30;99.90;;;;;;4974691;28;20190;-58
2022/01/19 03:32:59;;;;;;;18.80;6.57;;;-3.40;99.90;;;;;;4991664;28;20178;-59
2022/01/19 03:35:24;;;;;;;17.13;7.77;;;-3.40;99.90;;;;;;4991519;28;20214;-60
2022/01/19 03:37:51;;;;;;;20.47;7.73;;;-3.40;99.90;;;;;;4974417;28;20248;-59
2022/01/19 03:40:16;;;;;;;19.07;7.17;;;-3.40;99.90;;;;;;4991854;28;20187;-59
2022/01/19 03:42:42;;;;;;;23.50;7.63;;;-3.50;99.90;;;;;;4992020;28;20193;-59
2022/01/19 03:45:09;;;;;;;13.40;6.23;;;-3.40;99.90;;;;;;4974484;28;20630;-60
2022/01/19 03:47:45;;;;;;;14.47;7.40;;;-3.50;99.90;;;;;;4974819;28;20198;-59
2022/01/19 03:50:11;;;;;;;19.00;6.13;;;-3.50;99.90;;;;;;4974501;28;20187;-60
2022/01/19 03:52:37;;;;;;;20.17;7.50;;;-3.50;99.90;;;;;;4991926;28;20238;-59
2022/01/19 03:55:03;;;;;;;20.17;7.40;;;-3.60;99.90;;;;;;4974171;28;20207;-58
2022/01/19 03:57:29;;;;;;;17.37;6.07;;;-3.60;99.90;;;;;;4991777;28;20214;-59
2022/01/19 03:59:55;;;;;;;19.73;7.90;;;-3.70;99.90;;;;;;4992418;28;20210;-61
2022/01/19 04:02:21;;;;;;;17.23;7.53;;;-3.60;99.90;;;;;;4974683;28;20211;-60
2022/01/19 04:07:14;;;;;;;17.80;6.83;;;-3.70;99.90;;;;;;4991560;28;20197;-60
2022/01/19 04:09:42;;;;;;;18.50;6.77;;;-3.80;99.90;;;;;;4991562;28;20185;-59
2022/01/19 04:12:13;;;;;;;21.20;8.37;;;-3.80;99.90;;;;;;4991327;28;20190;-59
2022/01/19 04:14:38;;;;;;;16.63;7.23;;;-3.70;99.90;;;;;;4991719;28;20201;-60
2022/01/19 04:17:10;;;;;;;18.63;7.67;;;-3.80;99.90;;;;;;4991589;28;20185;-59
2022/01/19 04:19:43;;;;;;;16.37;7.50;;;-3.80;99.90;;;;;;4991662;28;20170;-60
2022/01/19 04:22:13;;;;;;;22.13;8.37;;;-3.90;99.90;;;;;;4974102;28;20564;-59
2022/01/19 04:24:40;;;;;;;14.83;7.00;;;-3.90;99.90;;;;;;4974096;28;20543;-60
2022/01/19 04:30:10;;;;;;;22.13;8.03;;;-3.80;99.90;;;;;;4991529;28;20186;-59
2022/01/19 04:33:24;;;;;;;20.73;8.13;;;-3.80;99.90;;;;;;4991398;28;20175;-60
2022/01/19 04:35:31;;;;;;;23.53;8.93;;;-3.80;99.90;;;;;;4978521;28;20241;-59
2022/01/19 04:48:48;;;;;;;20.37;7.17;;;-3.60;99.90;;;;;;4993757;28;20197;-63
2022/01/19 05:04:48;;;;;;;22.03;8.80;;;-3.80;99.90;;;;;;4980343;28;20210;-59
2022/01/19 05:10:06;;;;;;;27.73;8.70;;;-3.90;99.90;;;;;;4996931;28;20647;-59
2022/01/19 05:15:18;;;;;;;19.90;8.13;;;-4.00;99.90;;;;;;5013543;28;20201;-60
2022/01/19 05:17:44;;;;;;;14.93;7.60;;;-3.90;99.90;;;;;;4996463;28;20257;-61
2022/01/19 05:20:12;;;;;;;17.27;7.57;;;-3.80;99.90;;;;;;4995737;28;20181;-59
2022/01/19 05:22:38;;;;;;;15.77;6.97;;;-3.80;99.90;;;;;;5013808;28;20181;-58
2022/01/19 05:25:04;;;;;;;15.27;6.50;;;-3.70;99.90;;;;;;5013305;28;20192;-62
2022/01/19 05:27:31;;;;;;;12.40;6.60;;;-3.60;99.90;;;;;;4996213;28;20181;-60
2022/01/19 05:29:56;;;;;;;19.00;6.20;;;-3.70;99.90;;;;;;4996037;28;20188;-60
2022/01/19 05:32:23;;;;;;;14.07;6.50;;;-3.60;99.90;;;;;;5013339;28;20180;-60
2022/01/19 05:34:48;;;;;;;15.67;6.63;;;-3.60;99.90;;;;;;5013251;28;20191;-60
2022/01/19 05:37:14;;;;;;;17.70;6.80;;;-3.60;99.90;;;;;;5012683;28;20200;-61
2022/01/19 05:39:40;;;;;;;17.50;5.43;;;-3.60;99.90;;;;;;5012965;28;20660;-60
2022/01/19 05:42:13;;;;;;;19.73;6.20;;;-3.70;99.90;;;;;;5012346;28;20331;-60
2022/01/19 05:44:39;;;;;;;14.13;5.80;;;-3.60;99.90;;;;;;4992246;28;20185;-60
2022/01/19 05:47:05;;;;;;;20.20;7.10;;;-3.60;99.90;;;;;;4989028;28;20232;-61
2022/01/19 05:49:31;;;;;;;13.60;6.07;;;-3.60;99.90;;;;;;4999431;28;20249;-61
2022/01/19 05:51:57;;;;;;;16.20;6.53;;;-3.60;99.90;;;;;;5000591;28;20190;-60
2022/01/19 05:54:23;;;;;;;15.63;7.03;;;-3.60;99.90;;;;;;4992381;28;20696;-61
2022/01/19 05:56:50;;;;;;;16.17;6.57;;;-3.70;99.90;;;;;;5010667;28;20197;-61
2022/01/19 05:59:16;;;;;;;14.93;5.23;;;-3.70;99.90;;;;;;4990852;28;20217;-62
2022/01/19 06:01:42;;;;;;;16.23;6.63;;;-3.70;99.90;;;;;;5009991;28;20190;-60
2022/01/19 06:04:08;;;;;;;15.93;6.33;;;-3.60;99.90;;;;;;5003862;28;20213;-61
2022/01/19 06:06:34;;;;;;;12.93;6.17;;;-3.60;99.90;;;;;;5003542;28;20551;-61
2022/01/19 06:09:03;;;;;;;12.20;5.40;;;-3.60;99.90;;;;;;4984508;28;20198;-64
2022/01/19 06:11:29;;;;;;;20.80;6.27;;;-3.40;99.90;;;;;;5002431;28;20205;-56
2022/01/19 06:13:55;;;;;;;14.63;5.10;;;-3.40;99.90;;;;;;5002256;28;20328;-60
2022/01/19 06:16:21;;;;;;;16.67;5.80;;;-3.30;99.90;;;;;;5000848;28;20288;-58
2022/01/19 06:18:46;;;;;;;12.67;5.70;;;-3.30;99.90;;;;;;4984345;28;20633;-62
2022/01/19 06:21:13;;;;;;;14.97;5.40;;;-3.20;99.90;;;;;;4983309;28;20373;-61
2022/01/19 06:23:40;;;;;;;17.43;6.53;;;-3.10;99.90;;;;;;4984754;28;20621;-63
2022/01/19 06:26:06;;;;;;;17.97;6.30;;;-3.00;99.90;;;;;;5000911;28;20308;-60
2022/01/19 06:28:32;;;;;;;14.73;6.20;;;-2.90;99.90;;;;;;5001252;28;20370;-57
2022/01/19 06:30:58;;;;;;;14.50;5.57;;;-2.90;99.90;;;;;;5001654;28;20229;-54
2022/01/19 06:33:24;;;;;;;23.47;6.60;;;-2.90;99.90;;;;;;5002076;28;20186;-58
2022/01/19 06:35:50;;;;;;;20.73;5.37;;;-2.80;99.90;;;;;;5000309;28;20659;-62
2022/01/19 06:38:16;;;;;;;13.03;5.13;;;-2.70;99.90;;;;;;5001024;28;20945;-57
2022/01/19 06:40:42;;;;;;;26.03;6.60;;;-2.70;99.90;;;;;;5000689;28;20206;-57
2022/01/19 06:43:08;;;;;;;21.47;5.97;;;-2.60;99.90;;;;;;4982682;28;20190;-61
2022/01/19 06:45:34;;;;;;;18.93;6.17;;;-2.50;99.90;;;;;;4985404;28;20274;-57
2022/01/19 06:48:00;;;;;;;16.07;6.33;;;-2.50;99.90;;;;;;5003508;28;20202;-54
2022/01/19 06:50:27;;;;;;;13.27;5.63;;;-2.40;99.90;;;;;;5002841;28;20187;-58
2022/01/19 06:52:53;;;;;;;26.17;6.97;;;-2.40;99.90;;;;;;5003022;28;20245;-53
2022/01/19 06:55:19;;;;;;;19.30;6.40;;;-2.30;99.90;;;;;;4984195;28;20541;-57
2022/01/19 06:57:45;;;;;;;13.60;5.60;;;-2.20;99.90;;;;;;5001761;28;20219;-58
2022/01/19 07:00:12;;;;;;;25.27;6.57;;;-2.20;99.90;;;;;;4999702;28;20212;-63
2022/01/19 07:02:38;;;;;;;16.80;5.27;;;-2.10;99.90;;;;;;5000579;28;20188;-59
2022/01/19 07:05:04;;;;;;;14.67;4.83;;;-2.00;99.90;;;;;;4999263;28;20213;-66
2022/01/19 07:07:31;;;;;;;12.53;5.40;;;-1.80;99.90;;;;;;4982435;28;20245;-62
2022/01/19 07:09:56;;;;;;;16.40;5.30;;;-1.80;99.90;;;;;;4999978;28;20275;-57
2022/01/19 07:12:22;;;;;;;29.80;6.40;;;-1.70;99.90;;;;;;5000064;28;20373;-57
2022/01/19 07:14:48;;;;;;;32.13;6.23;;;-1.70;99.90;;;;;;4999387;28;20241;-59
2022/01/19 07:17:14;;;;;;;25.63;6.87;;;-1.60;99.90;;;;;;4982277;28;20195;-58
2022/01/19 07:19:40;;;;;;;20.13;6.37;;;-1.60;99.90;;;;;;4980953;28;20218;-59
2022/01/19 07:22:06;;;;;;;12.60;4.77;;;-1.50;99.90;;;;;;4997936;28;20223;-57
2022/01/19 07:24:32;;;;;;;35.10;6.70;;;-1.50;99.90;;;;;;4998893;28;20189;-61
2022/01/19 07:26:58;;;;;;;25.33;6.10;;;-1.40;99.90;;;;;;4981013;28;20188;-57
2022/01/19 07:29:24;;;;;;;20.73;5.17;;;-1.40;99.90;;;;;;4980972;28;20974;-59
2022/01/19 07:31:50;;;;;;;29.50;7.17;;;-1.30;99.90;;;;;;4998491;28;20302;-62
2022/01/19 07:34:16;;;;;;;26.10;5.50;;;-1.20;99.90;;;;;;4999624;28;20286;-61
2022/01/19 07:36:42;;;;;;;32.73;5.80;;;-1.10;99.90;;;;;;5000143;28;20274;-56
2022/01/19 07:39:09;;;;;;;12.20;6.03;;;-0.90;99.90;;;;;;4974056;28;20228;-58
2022/01/19 07:41:34;;;;;;;20.23;5.63;;;-0.80;99.90;;;;;;5002986;28;20257;-60
2022/01/19 07:44:01;;;;;;;23.50;5.90;;;-0.70;99.90;;;;;;5010382;28;20654;-60
2022/01/19 07:46:26;;;;;;;26.07;7.37;;;-0.60;99.90;;;;;;5010146;28;20195;-60
2022/01/19 07:48:53;;;;;;;42.53;7.00;;;-0.40;99.90;;;;;;5010164;28;20282;-58
2022/01/19 07:51:18;;;;;;;23.73;6.13;;;-0.40;99.90;;;;;;4993224;28;20719;-58
2022/01/19 07:53:44;;;;;;;30.17;6.13;;;-0.40;99.90;;;;;;4992765;28;20317;-59
2022/01/19 07:56:10;;;;;;;24.33;6.10;;;-0.30;99.90;;;;;;4993026;28;20192;-59
2022/01/19 07:58:36;;;;;;;70.87;6.70;;;-0.20;99.90;;;;;;4993332;28;20287;-58
2022/01/19 08:01:01;;;;;;;32.70;6.87;;;-0.10;99.90;;;;;;4976699;28;20571;-57
2022/01/19 08:03:27;;;;;;;79.17;9.70;;;0.10;99.90;;;;;;5010471;28;20176;-55
2022/01/19 08:05:53;;;;;;;43.17;6.87;;;0.30;99.90;;;;;;4993188;28;20546;-55
2022/01/19 08:08:18;;;;;;;63.90;13.63;;;0.50;99.90;;;;;;4992052;28;20243;-58
2022/01/19 08:10:45;;;;;;;32.10;5.50;;;0.70;99.90;;;;;;5010429;28;20532;-59
2022/01/19 08:13:12;;;;;;;19.60;4.10;;;0.80;99.90;;;;;;5009561;28;20196;-59
2022/01/19 08:15:37;;;;;;;9.57;4.20;;;0.90;99.90;;;;;;4990676;28;20218;-59
2022/01/19 08:18:04;;;;;;;10.40;3.50;;;1.00;99.90;;;;;;4990678;28;20264;-58
2022/01/19 08:20:29;;;;;;;15.63;4.80;;;1.10;99.90;;;;;;4991649;28;20737;-55
2022/01/19 08:22:55;;;;;;;12.00;3.70;;;1.10;99.90;;;;;;4995152;28;20181;-58
2022/01/19 08:25:21;;;;;;;8.93;3.40;;;1.20;99.90;;;;;;4994381;28;20638;-57
2022/01/19 08:27:47;;;;;;;19.63;4.00;;;1.30;99.90;;;;;;4993670;28;20553;-59
2022/01/19 08:30:14;;;;;;;16.47;4.10;;;1.40;99.90;;;;;;4994396;28;20623;-58
2022/01/19 08:32:41;;;;;;;23.80;3.67;;;1.40;99.90;;;;;;4994543;28;20245;-58
2022/01/19 08:35:08;;;;;;;14.13;3.97;;;1.50;99.90;;;;;;4995009;28;20198;-57
2022/01/19 08:37:34;;;;;;;21.50;4.97;;;1.50;99.90;;;;;;4994395;28;20225;-59
2022/01/19 08:40:00;;;;;;;29.20;6.30;;;1.40;99.90;;;;;;4994766;28;20218;-52
2022/01/19 08:42:28;;;;;;;20.47;4.10;;;1.40;99.90;;;;;;4994465;28;20194;-59
2022/01/19 08:44:55;;;;;;;30.97;5.37;;;1.30;99.90;;;;;;4994870;28;20642;-56
2022/01/19 08:47:21;;;;;;;22.43;3.30;;;1.40;99.90;;;;;;4994068;28;20184;-58
2022/01/19 08:49:47;;;;;;;16.43;2.97;;;1.50;99.90;;;;;;4993167;28;20184;-59
2022/01/19 08:52:15;;;;;;;22.70;4.20;;;1.50;99.40;;;;;;4992115;28;20206;-60
2022/01/19 08:54:42;;;;;;;30.77;4.00;;;1.60;99.00;;;;;;4941755;28;20278;-57
2022/01/19 08:57:08;;;;;;;6.17;2.13;;;1.70;99.00;;;;;;4974814;28;20263;-57
2022/01/19 08:59:34;;;;;;;9.90;2.13;;;1.80;98.20;;;;;;4974326;28;20743;-57
2022/01/19 09:02:00;;;;;;;39.17;7.53;;;1.70;97.80;;;;;;4956908;28;20188;-58
2022/01/19 09:04:26;;;;;;;7.80;2.10;;;1.80;97.90;;;;;;4974132;28;20260;-58
2022/01/19 09:06:53;;;;;;;14.13;2.77;;;1.70;97.50;;;;;;4974744;28;20199;-58
2022/01/19 09:09:19;;;;;;;22.00;3.30;;;1.40;97.50;;;;;;4974569;28;20185;-60
2022/01/19 09:11:45;;;;;;;20.33;2.73;;;1.40;97.80;;;;;;4974486;28;20180;-58
2022/01/19 09:14:11;;;;;;;17.10;2.73;;;1.50;97.90;;;;;;4964796;28;20194;-62
2022/01/19 09:16:38;;;;;;;14.27;2.70;;;1.60;97.60;;;;;;4993806;28;20179;-57
2022/01/19 09:19:06;;;;;;;3.77;1.30;;;1.80;97.60;;;;;;4993953;28;20223;-58
2022/01/19 09:21:33;;;;;;;26.70;2.47;;;1.80;97.00;;;;;;4993720;28;20190;-59
2022/01/19 09:23:59;;;;;;;27.90;6.60;;;1.90;96.70;;;;;;4994066;28;20185;-62
2022/01/19 09:26:25;;;;;;;6.30;1.93;;;2.00;96.70;;;;;;4993866;28;20176;-58
2022/01/19 09:28:51;;;;;;;5.33;1.40;;;2.10;96.40;;;;;;4959662;28;20183;-57
2022/01/19 09:31:19;;;;;;;29.27;2.47;;;1.90;95.70;;;;;;4992330;28;20200;-57
2022/01/19 09:33:52;;;;;;;6.33;2.20;;;2.20;96.20;;;;;;4975663;28;20190;-59
2022/01/19 09:36:31;;;;;;;24.47;5.00;;;2.60;95.80;;;;;;4976854;28;20210;-61
2022/01/19 09:38:57;;;;;;;10.43;2.00;;;2.90;95.20;;;;;;4993560;28;20262;-57
2022/01/19 09:41:23;;;;;;;3.07;1.10;;;2.60;94.30;;;;;;4975195;28;20184;-59
2022/01/19 09:43:49;;;;;;;28.27;2.90;;;2.50;94.20;;;;;;4993697;28;20223;-55
2022/01/19 09:46:15;;;;;;;20.23;3.13;;;2.60;94.70;;;;;;4992729;28;20218;-58
2022/01/19 09:48:41;;;;;;;15.53;2.40;;;2.60;94.10;;;;;;4993233;28;20271;-60
2022/01/19 09:51:07;;;;;;;4.73;1.43;;;2.50;93.80;;;;;;4993038;28;20231;-57
2022/01/19 09:53:33;;;;;;;14.60;1.97;;;2.50;93.30;;;;;;4992473;28;20238;-58
2022/01/19 09:56:00;;;;;;;20.53;2.33;;;2.50;93.20;;;;;;4975184;28;20194;-63
2022/01/19 09:58:25;;;;;;;13.37;1.77;;;2.60;93.40;;;;;;4992347;28;20285;-58
2022/01/19 10:00:51;;;;;;;9.77;1.70;;;2.80;93.60;;;;;;4992893;28;20184;-57
2022/01/19 10:03:30;;;;;;;10.03;2.00;;;3.00;92.90;;;;;;4974061;28;20667;-61
2022/01/19 10:05:57;;;;;;;27.60;3.93;;;3.10;92.70;;;;;;4992676;28;20176;-61
2022/01/19 10:08:40;;;;;;;16.37;2.50;;;2.90;92.40;;;;;;4992378;28;20240;-57
2022/01/19 10:17:01;;;;;;;10.43;2.83;;;2.50;92.80;;;;;;4992804;28;20238;-58
2022/01/19 10:19:45;;;;;;;11.80;2.70;;;2.60;92.60;;;;;;4975237;28;20218;-57
2022/01/19 10:22:29;;;;;;;41.20;5.00;;;2.40;92.20;;;;;;4992253;28;20638;-58
2022/01/19 10:25:01;;;;;;;26.83;4.20;;;2.30;92.30;;;;;;4975222;28;20198;-58
2022/01/19 10:27:45;;;;;;;7.27;2.10;;;2.40;92.40;;;;;;4992745;28;20551;-58
2022/01/19 10:30:23;;;;;;;19.50;3.20;;;2.50;92.40;;;;;;4974791;28;20709;-61
2022/01/19 10:32:51;;;;;;;7.97;2.70;;;2.70;92.30;;;;;;4992153;28;20263;-56
2022/01/19 10:35:32;;;;;;;11.77;3.73;;;2.70;91.30;;;;;;4992179;28;20241;-56
2022/01/19 10:38:09;;;;;;;13.80;2.97;;;2.40;91.30;;;;;;4991832;28;20254;-57
2022/01/19 10:40:38;;;;;;;12.80;3.07;;;2.50;91.40;;;;;;4991659;28;20183;-57
2022/01/19 10:43:28;;;;;;;11.63;3.53;;;2.40;91.30;;;;;;4989000;28;20196;-62
2022/01/19 10:45:56;;;;;;;31.17;4.13;;;2.50;91.30;;;;;;4990026;28;20200;-60
2022/01/19 10:48:36;;;;;;;11.70;3.27;;;2.60;91.10;;;;;;4971779;28;20218;-57
2022/01/19 10:51:21;;;;;;;17.60;3.43;;;2.70;91.00;;;;;;4992295;28;20177;-58
2022/01/19 10:54:05;;;;;;;18.07;3.40;;;2.90;90.70;;;;;;4975935;28;20239;-59
2022/01/19 10:56:32;;;;;;;9.50;3.13;;;2.90;90.40;;;;;;5010107;28;20995;-62
2022/01/19 10:59:00;;;;;;;29.33;4.13;;;2.80;90.00;;;;;;5010233;28;20227;-61
2022/01/19 11:01:43;;;;;;;40.37;5.20;;;2.80;90.00;;;;;;5010449;28;20179;-61
2022/01/19 11:04:28;;;;;;;17.40;3.67;;;3.10;90.60;;;;;;5010455;28;20229;-58
2022/01/19 11:07:01;;;;;;;35.73;5.00;;;3.40;89.20;;;;;;5010737;28;20183;-61
2022/01/19 11:09:29;;;;;;;13.50;3.47;;;3.50;88.70;;;;;;5010428;28;20183;-63
2022/01/19 11:12:03;;;;;;;32.27;5.30;;;3.60;87.20;;;;;;5010623;28;20534;-61
2022/01/19 11:14:30;;;;;;;8.87;2.47;;;3.90;87.20;;;;;;4999146;28;20185;-62
2022/01/19 11:16:55;;;;;;;24.67;5.40;;;3.60;84.50;;;;;;4991400;28;20214;-60
2022/01/19 11:19:22;;;;;;;8.47;2.77;;;3.30;88.90;;;;;;4990359;28;20239;-60
2022/01/19 11:21:56;;;;;;;17.00;3.47;;;3.00;86.90;;;;;;4990271;28;20242;-60
2022/01/19 11:24:35;;;;;;;13.57;3.50;;;2.80;88.20;;;;;;4990624;28;20210;-60
2022/01/19 11:27:02;;;;;;;19.53;3.73;;;2.60;87.50;;;;;;4989788;28;20648;-59
2022/01/19 11:29:30;;;;;;;9.90;3.30;;;2.60;88.40;;;;;;4990518;28;20191;-59
2022/01/19 11:31:57;;;;;;;5.73;2.47;;;2.60;86.90;;;;;;4973090;28;20251;-54
2022/01/19 11:34:48;;;;;;;11.70;3.00;;;2.50;86.40;;;;;;4990235;28;20195;-60
2022/01/19 11:37:35;;;;;;;13.87;2.07;;;2.50;87.30;;;;;;4990302;28;20180;-59
2022/01/19 11:40:09;;;;;;;5.37;2.07;;;2.50;86.80;;;;;;4973212;28;20725;-56
2022/01/19 11:42:35;;;;;;;7.53;2.20;;;2.50;86.60;;;;;;4990253;28;20175;-56
2022/01/19 11:45:02;;;;;;;7.00;2.13;;;2.60;87.20;;;;;;4990341;28;20207;-58
2022/01/19 11:47:30;;;;;;;7.67;2.33;;;2.60;86.30;;;;;;4990107;28;20286;-62
2022/01/19 11:49:57;;;;;;;8.47;2.00;;;2.60;86.60;;;;;;4989928;28;20222;-60
2022/01/19 11:52:38;;;;;;;5.13;2.23;;;2.70;86.30;;;;;;4945291;28;1292548;-61
2022/01/19 11:55:21;;;;;;;6.10;2.17;;;2.70;85.70;;;;;;4973379;28;20670;-59
2022/01/19 11:57:49;;;;;;;5.33;1.77;;;2.70;85.60;;;;;;4994787;28;20743;-60
2022/01/19 12:00:23;;;;;;;3.77;1.80;;;2.70;85.40;;;;;;4994522;28;20199;-59
2022/01/19 12:02:59;;;;;;;11.00;2.93;;;2.60;84.80;;;;;;4995180;28;20185;-58
2022/01/19 12:05:37;;;;;;;31.87;4.83;;;2.70;85.70;;;;;;4994922;28;20567;-59
2022/01/19 12:08:19;;;;;;;10.43;2.70;;;2.80;86.60;;;;;;4995400;28;20183;-57
2022/01/19 12:10:49;;;;;;;8.77;2.30;;;2.80;85.10;;;;;;4995215;28;20184;-56
2022/01/19 12:16:50;;;;;;;30.50;5.20;;;3.00;85.00;;;;;;5014925;28;20229;-59
2022/01/19 12:19:20;;;;;;;13.20;2.27;;;3.10;85.40;;;;;;5014668;28;20214;-56
2022/01/19 12:22:05;;;;;;;8.87;2.43;;;3.10;84.60;;;;;;5014615;28;20179;-61
2022/01/19 12:24:34;;;;;;;15.27;3.33;;;3.60;85.40;;;;;;4996455;28;20191;-58
2022/01/19 12:27:17;;;;;;;12.17;2.70;;;4.90;82.70;;;;;;5014742;28;20647;-62
2022/01/19 12:30:05;;;;;;;17.97;3.47;;;6.40;77.90;;;;;;5014266;28;20648;-59
2022/01/19 12:32:44;;;;;;;14.03;3.30;;;7.70;73.00;;;;;;5013972;28;20190;-58
2022/01/19 12:35:11;;;;;;;12.50;3.30;;;8.20;67.90;;;;;;5014201;28;20192;-58
2022/01/19 12:37:46;;;;;;;6.27;2.97;;;8.30;66.80;;;;;;5014170;28;20273;-58
2022/01/19 12:40:18;;;;;;;6.50;2.37;;;8.60;64.20;;;;;;5014225;28;20194;-62
2022/01/19 12:42:46;;;;;;;22.73;3.37;;;8.70;61.80;;;;;;5013651;28;20643;-57
2022/01/19 12:45:15;;;;;;;7.27;2.80;;;8.90;61.40;;;;;;5014138;28;20631;-58
2022/01/19 12:47:41;;;;;;;10.17;2.80;;;7.60;61.30;;;;;;5014083;28;20311;-58
2022/01/19 12:50:06;;;;;;;8.70;2.70;;;6.60;63.90;;;;;;5014001;28;20262;-58
2022/01/19 12:52:34;;;;;;;17.60;3.10;;;5.50;66.20;;;;;;5013450;28;20238;-57
2022/01/19 12:55:18;;;;;;;8.83;3.43;;;4.70;68.10;;;;;;5013781;28;20181;-59
2022/01/19 12:57:45;;;;;;;23.03;3.80;;;4.10;70.40;;;;;;5013410;28;20209;-58
2022/01/19 13:00:15;;;;;;;17.07;3.30;;;3.60;72.20;;;;;;5013964;28;20208;-59
2022/01/19 13:02:41;;;;;;;7.80;3.17;;;3.50;73.20;;;;;;5013490;28;20309;-58
2022/01/19 13:05:19;;;;;;;13.30;5.03;;;3.40;73.70;;;;;;5013166;28;20183;-60
2022/01/19 13:08:07;;;;;;;6.70;2.83;;;3.30;74.30;;;;;;5011770;28;20640;-60
2022/01/19 13:15:51;;;;;;;9.37;3.27;;;3.20;74.50;;;;;;4976696;28;20596;-60
2022/01/19 13:18:28;;;;;;;7.97;3.30;;;3.20;75.40;;;;;;4993992;28;20684;-59
2022/01/19 13:20:56;;;;;;;8.50;2.80;;;3.10;75.10;;;;;;4993927;28;20546;-58
2022/01/19 13:23:23;;;;;;;12.07;4.17;;;3.00;75.00;;;;;;4993614;28;20188;-61
2022/01/19 13:26:02;;;;;;;26.27;4.93;;;2.90;75.70;;;;;;4993736;28;20180;-57
2022/01/19 13:28:30;;;;;;;30.93;5.37;;;2.80;76.90;;;;;;4993792;28;20179;-58
2022/01/19 13:31:08;;;;;;;14.87;3.50;;;2.80;78.30;;;;;;4993825;28;20290;-59
2022/01/19 13:33:34;;;;;;;21.90;4.20;;;2.80;77.00;;;;;;4993896;28;20191;-58
2022/01/19 13:36:01;;;;;;;18.50;3.80;;;2.80;77.20;;;;;;4993505;28;20191;-60
2022/01/19 13:38:28;;;;;;;18.83;4.60;;;2.90;77.70;;;;;;4993236;28;20215;-59
2022/01/19 13:41:09;;;;;;;47.47;7.17;;;3.30;77.50;;;;;;4993362;28;20188;-60
2022/01/19 13:43:38;;;;;;;34.77;5.97;;;3.90;76.70;;;;;;4992769;28;20595;-60
2022/01/19 13:46:17;;;;;;;28.00;5.53;;;4.30;76.20;;;;;;4993214;28;20618;-58
2022/01/19 13:48:45;;;;;;;38.90;5.43;;;4.80;74.80;;;;;;4992997;28;20206;-61
2022/01/19 13:51:14;;;;;;;31.73;7.33;;;6.10;73.30;;;;;;4958863;28;20274;-57
2022/01/19 13:53:49;;;;;;;13.80;4.00;;;7.40;69.50;;;;;;5009438;28;20274;-57
2022/01/19 13:56:26;;;;;;;13.53;4.07;;;7.50;66.30;;;;;;5012252;28;20544;-60
2022/01/19 13:59:19;;;;;;;7.67;3.93;;;7.50;65.80;;;;;;5012353;28;20634;-59
2022/01/19 14:01:51;;;;;;;15.67;3.93;;;8.50;64.30;;;;;;5008808;28;20205;-60
2022/01/19 14:04:17;;;;;;;70.27;8.60;;;9.40;61.20;;;;;;5012634;28;20197;-60
2022/01/19 14:06:45;;;;;;;68.60;14.63;;;9.80;62.80;;;;;;4978380;28;20668;-59
2022/01/19 14:09:11;;;;;;;102.77;12.10;;;9.90;66.90;;;;;;5012413;28;20181;-60
2022/01/19 14:11:39;;;;;;;60.30;10.00;;;9.00;69.10;;;;;;5010746;28;20187;-63
2022/01/19 14:14:08;;;;;;;44.17;7.33;;;7.90;65.50;;;;;;5012112;28;20228;-61
2022/01/19 14:16:38;;;;;;;35.30;6.73;;;6.60;65.10;;;;;;5011265;28;20187;-62
2022/01/19 14:19:19;;;;;;;48.73;9.57;;;5.70;71.10;;;;;;4992899;28;20219;-60
2022/01/19 14:22:05;;;;;;;44.13;6.90;;;4.80;70.40;;;;;;5009982;28;20193;-60
2022/01/19 14:24:59;;;;;;;43.13;8.20;;;4.20;71.80;;;;;;5010833;28;20185;-60
2022/01/19 14:27:24;;;;;;;64.57;8.57;;;3.70;74.50;;;;;;5010408;28;20194;-63
2022/01/19 14:29:59;;;;;;;20.70;6.10;;;3.40;75.20;;;;;;5010233;28;20186;-60
2022/01/19 14:32:42;;;;;;;32.23;6.37;;;3.00;75.90;;;;;;5011395;28;20288;-61